createdAt,value
2023-11-02T00:00:00.721Z,2.37
2023-11-02T00:02:29.782Z,2.37
2023-11-02T00:04:59.134Z,3.30
2023-11-02T00:07:30.516Z,3.27
2023-11-02T00:10:00.362Z,3.37
2023-11-02T00:12:31.321Z,3.63
2023-11-02T00:15:01.776Z,2.70
2023-11-02T00:17:45.876Z,3.20
2023-11-02T00:20:40.610Z,2.50
2023-11-02T00:23:10.441Z,2.93
2023-11-02T00:25:55.308Z,2.40
2023-11-02T00:28:23.883Z,2.97
2023-11-02T00:30:52.567Z,2.83
2023-11-02T00:33:23.017Z,3.40
2023-11-02T00:35:52.429Z,3.17
2023-11-02T00:38:25.429Z,2.80
2023-11-02T00:40:55.932Z,3.23
2023-11-02T00:43:24.334Z,3.87
2023-11-02T00:45:54.064Z,3.20
2023-11-02T00:48:25.670Z,2.60
2023-11-02T00:51:25.234Z,2.53
2023-11-02T00:53:55.529Z,2.53
2023-11-02T00:56:26.602Z,2.80
2023-11-02T00:58:55.605Z,2.97
2023-11-02T01:01:24.935Z,2.60
2023-11-02T01:03:55.833Z,3.17
2023-11-02T01:06:26.144Z,3.10
2023-11-02T01:08:56.929Z,2.80
2023-11-02T01:11:31.585Z,2.90
2023-11-02T01:13:59.935Z,2.50
2023-11-02T01:16:28.997Z,3.70
2023-11-02T01:19:00.163Z,3.17
2023-11-02T01:21:31.498Z,3.80
2023-11-02T01:24:04.322Z,2.93
2023-11-02T01:26:58.864Z,2.50
2023-11-02T01:29:29.652Z,3.63
2023-11-02T01:31:58.136Z,2.90
2023-11-02T01:34:27.716Z,2.73
2023-11-02T01:36:57.055Z,1.90
2023-11-02T01:39:55.408Z,2.50
2023-11-02T01:42:29.497Z,2.27
2023-11-02T01:45:04.820Z,2.57
2023-11-02T01:47:54.243Z,2.17
2023-11-02T01:50:31.033Z,2.50
2023-11-02T01:53:10.355Z,2.30
2023-11-02T01:56:01.555Z,1.80
2023-11-02T01:58:34.242Z,2.10
2023-11-02T02:01:11.028Z,1.77
2023-11-02T02:03:46.854Z,2.30
2023-11-02T02:06:20.979Z,1.70
2023-11-02T02:08:57.222Z,2.20
2023-11-02T02:11:39.994Z,2.10
2023-11-02T02:14:16.327Z,1.60
2023-11-02T02:16:48.805Z,2.43
2023-11-02T02:19:39.486Z,1.90
2023-11-02T02:22:11.237Z,2.07
2023-11-02T02:24:47.309Z,1.70
2023-11-02T02:28:00.508Z,2.03
2023-11-02T02:30:49.433Z,1.50
2023-11-02T02:33:42.746Z,2.17
2023-11-02T02:36:14.782Z,1.50
2023-11-02T02:38:47.686Z,2.20
2023-11-02T02:41:18.237Z,1.53
2023-11-02T02:43:47.336Z,1.60
2023-11-02T02:46:18.312Z,1.90
2023-11-02T02:48:48.311Z,1.53
2023-11-02T02:51:18.769Z,1.80
2023-11-02T02:53:47.309Z,1.83
2023-11-02T02:56:16.500Z,2.10
2023-11-02T02:58:46.777Z,1.40
2023-11-02T03:01:15.710Z,1.73
2023-11-02T03:03:44.207Z,1.70
2023-11-02T03:06:13.358Z,1.67
2023-11-02T03:08:44.368Z,1.93
2023-11-02T03:11:21.460Z,2.20
2023-11-02T03:13:51.466Z,1.80
2023-11-02T03:16:21.936Z,2.30
2023-11-02T03:18:50.448Z,1.50
2023-11-02T03:21:19.014Z,1.63
2023-11-02T03:23:52.712Z,1.50
2023-11-02T03:26:26.519Z,1.70
2023-11-02T03:29:04.557Z,2.13
2023-11-02T03:31:42.953Z,1.53
2023-11-02T03:34:16.932Z,1.60
2023-11-02T03:37:06.933Z,1.50
2023-11-02T03:39:56.012Z,1.47
2023-11-02T03:42:32.982Z,2.23
2023-11-02T03:45:06.817Z,1.90
2023-11-02T03:47:45.883Z,1.50
2023-11-02T03:50:31.832Z,1.90
2023-11-02T03:53:06.750Z,1.80
2023-11-02T03:55:53.453Z,2.33
2023-11-02T03:58:32.937Z,2.00
2023-11-02T04:01:13.040Z,1.57
2023-11-02T04:03:45.455Z,1.63
2023-11-02T04:06:18.508Z,1.77
2023-11-02T04:08:47.927Z,1.70
2023-11-02T04:11:24.861Z,2.10
2023-11-02T04:14:06.844Z,1.80
2023-11-02T04:16:35.187Z,1.93
2023-11-02T04:19:05.351Z,1.70
2023-11-02T04:21:33.870Z,1.53
2023-11-02T04:24:02.324Z,1.60
2023-11-02T04:26:33.156Z,2.03
2023-11-02T04:29:01.453Z,1.73
2023-11-02T04:31:30.026Z,1.60
2023-11-02T04:33:58.352Z,1.73
2023-11-02T04:36:26.694Z,1.70
2023-11-02T04:38:54.995Z,1.90
2023-11-02T04:41:23.294Z,1.57
2023-11-02T04:43:53.413Z,1.60
2023-11-02T04:46:21.737Z,1.70
2023-11-02T04:48:50.128Z,1.97
2023-11-02T04:51:18.470Z,1.90
2023-11-02T04:53:46.712Z,1.80
2023-11-02T04:56:14.924Z,2.10
2023-11-02T04:58:44.566Z,1.93
2023-11-02T05:01:15.630Z,1.70
2023-11-02T05:03:43.909Z,1.87
2023-11-02T05:06:12.737Z,2.00
2023-11-02T05:08:40.996Z,1.90
2023-11-02T05:11:09.304Z,2.40
2023-11-02T05:13:37.556Z,1.90
2023-11-02T05:16:06.574Z,1.60
2023-11-02T05:18:36.159Z,1.50
2023-11-02T05:21:04.735Z,1.40
2023-11-02T05:23:33.054Z,1.70
2023-11-02T05:26:01.280Z,1.70
2023-11-02T05:28:29.468Z,2.00
2023-11-02T05:30:57.677Z,2.60
2023-11-02T05:33:26.037Z,2.00
2023-11-02T05:35:55.647Z,2.53
2023-11-02T05:38:23.965Z,2.40
2023-11-02T05:40:52.202Z,1.80
2023-11-02T05:43:20.410Z,1.80
2023-11-02T05:45:49.684Z,2.00
2023-11-02T05:48:17.945Z,2.27
2023-11-02T05:50:46.195Z,3.00
2023-11-02T05:53:15.761Z,2.70
2023-11-02T05:55:44.019Z,2.00
2023-11-02T05:58:12.249Z,1.80
2023-11-02T06:00:46.586Z,1.87
2023-11-02T06:03:14.799Z,2.00
2023-11-02T06:05:43.065Z,1.70
2023-11-02T06:08:11.337Z,2.40
2023-11-02T06:10:41.035Z,1.80
2023-11-02T06:13:09.337Z,2.20
2023-11-02T06:15:38.073Z,1.90
2023-11-02T06:18:09.872Z,1.90
2023-11-02T06:20:38.586Z,3.47
2023-11-02T06:23:07.414Z,2.60
2023-11-02T06:25:35.663Z,2.63
2023-11-02T06:28:05.984Z,2.30
2023-11-02T06:30:35.954Z,2.43
2023-11-02T06:33:06.494Z,3.13
2023-11-02T06:35:34.872Z,2.47
2023-11-02T06:38:04.690Z,2.70
2023-11-02T06:40:32.981Z,2.50
2023-11-02T06:43:01.441Z,2.90
2023-11-02T06:45:36.340Z,2.70
2023-11-02T06:48:05.021Z,2.60
2023-11-02T06:50:33.382Z,2.60
2023-11-02T06:53:01.701Z,3.30
2023-11-02T06:55:37.451Z,2.90
2023-11-02T06:58:07.278Z,4.07
2023-11-02T07:00:38.217Z,3.70
2023-11-02T07:03:06.752Z,4.57
2023-11-02T07:05:35.153Z,3.97
2023-11-02T07:08:06.596Z,3.50
2023-11-02T07:10:34.961Z,3.73
2023-11-02T07:13:06.178Z,2.00
2023-11-02T07:15:39.226Z,3.07
2023-11-02T07:18:07.878Z,2.30
2023-11-02T07:20:36.236Z,2.20
2023-11-02T07:23:04.603Z,14.53
2023-11-02T07:25:32.860Z,2.83
2023-11-02T07:28:01.149Z,2.90
2023-11-02T07:30:29.407Z,1.87
2023-11-02T07:32:59.210Z,2.40
2023-11-02T07:35:27.521Z,2.50
2023-11-02T07:37:58.504Z,2.33
2023-11-02T07:40:26.963Z,2.70
2023-11-02T07:42:55.200Z,2.70
2023-11-02T07:45:23.560Z,2.70
2023-11-02T07:47:51.899Z,2.50
2023-11-02T07:50:21.599Z,2.20
2023-11-02T07:52:49.828Z,2.40
2023-11-02T07:55:18.039Z,2.57
2023-11-02T07:57:47.203Z,2.47
2023-11-02T08:00:17.310Z,2.00
2023-11-02T08:02:45.569Z,2.40
2023-11-02T08:05:14.229Z,1.90
2023-11-02T08:07:43.858Z,1.77
2023-11-02T08:10:12.274Z,1.83
2023-11-02T08:12:40.589Z,1.87
2023-11-02T08:15:09.779Z,1.80
2023-11-02T08:17:40.439Z,2.00
2023-11-02T08:20:11.331Z,1.80
2023-11-02T08:22:39.629Z,1.57
2023-11-02T08:25:10.414Z,1.40
2023-11-02T08:27:41.606Z,1.60
2023-11-02T08:30:10.354Z,1.47
2023-11-02T08:32:38.933Z,1.80
2023-11-02T08:35:09.001Z,2.00
2023-11-02T08:37:37.366Z,1.47
2023-11-02T08:40:06.996Z,1.60
2023-11-02T08:42:36.699Z,1.43
2023-11-02T08:45:06.321Z,1.30
2023-11-02T08:47:34.644Z,1.40
2023-11-02T08:50:04.128Z,1.40
2023-11-02T08:52:32.377Z,1.60
2023-11-02T08:55:01.674Z,1.93
2023-11-02T08:57:30.804Z,1.33
2023-11-02T09:00:02.302Z,1.70
2023-11-02T09:02:32.834Z,1.53
2023-11-02T09:05:01.889Z,1.40
2023-11-02T09:07:32.085Z,1.57
2023-11-02T09:10:00.347Z,1.50
2023-11-02T09:12:29.061Z,1.47
2023-11-02T09:14:57.812Z,1.87
2023-11-02T09:17:27.697Z,1.40
2023-11-02T09:19:56.177Z,1.63
2023-11-02T09:22:27.186Z,1.60
2023-11-02T09:24:56.140Z,1.50
2023-11-02T09:27:24.555Z,1.70
2023-11-02T09:29:52.837Z,1.57
2023-11-02T09:32:21.126Z,1.50
2023-11-02T09:34:50.674Z,1.63
2023-11-02T09:37:18.945Z,1.63
2023-11-02T09:39:47.299Z,1.50
2023-11-02T09:42:15.735Z,1.80
2023-11-02T09:44:44.056Z,1.57
2023-11-02T09:47:12.500Z,1.70
2023-11-02T09:49:40.909Z,1.40
2023-11-02T09:52:11.850Z,1.27
2023-11-02T09:54:46.302Z,1.30
2023-11-02T09:57:24.523Z,1.30
2023-11-02T09:59:52.919Z,1.30
2023-11-02T10:02:23.841Z,1.47
2023-11-02T10:04:52.142Z,1.60
2023-11-02T10:07:25.199Z,1.50
2023-11-02T10:09:53.428Z,1.20
2023-11-02T10:12:24.875Z,1.43
2023-11-02T10:14:53.307Z,1.37
2023-11-02T10:17:21.604Z,1.53
2023-11-02T10:19:52.857Z,1.20
2023-11-02T10:22:22.628Z,1.10
2023-11-02T10:24:52.272Z,1.30
2023-11-02T10:27:22.202Z,1.50
2023-11-02T10:29:51.268Z,1.00
2023-11-02T10:32:22.362Z,1.00
2023-11-02T10:34:53.207Z,1.20
2023-11-02T10:37:32.714Z,1.10
2023-11-02T10:40:02.437Z,1.30
2023-11-02T10:42:31.198Z,1.10
2023-11-02T10:45:00.835Z,1.07
2023-11-02T10:47:31.802Z,1.13
2023-11-02T10:50:01.453Z,1.40
2023-11-02T10:52:31.968Z,1.17
2023-11-02T10:55:10.737Z,1.13
2023-11-02T10:57:40.217Z,1.30
2023-11-02T11:00:10.015Z,1.23
2023-11-02T11:02:39.151Z,1.20
2023-11-02T11:05:09.394Z,1.30
2023-11-02T11:07:38.778Z,1.20
2023-11-02T11:10:12.678Z,1.20
2023-11-02T11:12:41.962Z,1.20
2023-11-02T11:15:11.728Z,1.57
2023-11-02T11:17:43.660Z,1.40
2023-11-02T11:20:13.775Z,1.60
2023-11-02T11:22:46.040Z,1.10
2023-11-02T11:25:16.182Z,1.10
2023-11-02T11:27:44.826Z,1.30
2023-11-02T11:30:37.308Z,1.23
2023-11-02T11:33:05.767Z,1.00
2023-11-02T11:35:34.188Z,1.20
2023-11-02T11:38:03.448Z,1.10
2023-11-02T11:40:44.925Z,1.77
2023-11-02T11:43:14.422Z,1.17
2023-11-02T11:45:51.384Z,9.63
2023-11-02T11:48:40.284Z,1.20
2023-11-02T11:51:40.934Z,1.20
2023-11-02T11:54:10.850Z,1.23
2023-11-02T11:56:40.556Z,1.27
2023-11-02T11:59:08.998Z,1.20
2023-11-02T12:01:38.141Z,1.53
2023-11-02T12:04:08.870Z,1.10
2023-11-02T12:06:45.057Z,1.50
2023-11-02T12:09:14.259Z,2.47
2023-11-02T12:11:45.792Z,1.30
2023-11-02T12:14:16.421Z,1.23
2023-11-02T12:16:44.928Z,1.20
2023-11-02T12:19:13.434Z,1.17
2023-11-02T12:21:42.478Z,1.37
2023-11-02T12:24:11.887Z,1.23
2023-11-02T12:26:41.774Z,1.30
2023-11-02T12:29:12.890Z,1.40
2023-11-02T12:31:42.788Z,1.00
2023-11-02T12:34:13.410Z,1.10
2023-11-02T12:36:42.695Z,1.10
2023-11-02T12:39:15.193Z,1.70
2023-11-02T12:41:44.995Z,1.53
2023-11-02T12:44:16.903Z,1.07
2023-11-02T12:46:46.275Z,1.37
2023-11-02T12:49:18.243Z,1.03
2023-11-02T12:52:09.040Z,1.20
2023-11-02T12:54:38.344Z,1.20
2023-11-02T12:57:08.493Z,2.23
2023-11-02T12:59:43.555Z,2.07
2023-11-02T13:02:14.772Z,1.47
2023-11-02T13:04:50.598Z,1.10
2023-11-02T13:07:22.989Z,1.20
2023-11-02T13:10:04.626Z,1.13
2023-11-02T13:12:35.629Z,1.17
2023-11-02T13:15:09.817Z,1.50
2023-11-02T13:17:40.381Z,1.10
2023-11-02T13:20:10.611Z,1.60
2023-11-02T13:22:39.395Z,1.63
2023-11-02T13:25:08.726Z,1.20
2023-11-02T13:27:37.993Z,1.50
2023-11-02T13:30:10.780Z,1.30
2023-11-02T13:32:40.228Z,1.10
2023-11-02T13:35:09.571Z,1.50
2023-11-02T13:37:38.183Z,3.47
2023-11-02T13:40:11.730Z,1.50
2023-11-02T13:42:40.905Z,1.10
2023-11-02T13:45:11.993Z,1.20
2023-11-02T13:47:41.957Z,1.17
2023-11-02T13:50:15.421Z,1.17
2023-11-02T13:52:44.714Z,1.07
2023-11-02T13:55:14.720Z,1.40
2023-11-02T13:57:43.061Z,1.20
2023-11-02T14:00:16.818Z,1.33
2023-11-02T14:02:45.422Z,1.13
2023-11-02T14:05:14.113Z,1.10
2023-11-02T14:07:43.121Z,1.10
2023-11-02T14:10:11.868Z,1.37
2023-11-02T14:12:40.181Z,1.23
2023-11-02T14:15:09.649Z,1.30
2023-11-02T14:17:39.764Z,1.10
2023-11-02T14:20:10.759Z,1.20
2023-11-02T14:22:39.029Z,1.10
2023-11-02T14:25:09.085Z,2.37
2023-11-02T14:27:37.985Z,1.20
2023-11-02T14:30:08.489Z,1.03
2023-11-02T14:32:36.809Z,1.10
2023-11-02T14:35:07.597Z,1.33
2023-11-02T14:37:35.910Z,1.00
2023-11-02T14:40:05.050Z,1.20
2023-11-02T14:42:33.371Z,1.33
2023-11-02T14:45:01.762Z,1.63
2023-11-02T14:47:30.010Z,1.30
2023-11-02T14:49:58.537Z,1.40
2023-11-02T14:52:32.020Z,1.60
2023-11-02T14:55:04.819Z,1.13
2023-11-02T14:57:34.503Z,1.60
2023-11-02T15:00:05.370Z,1.27
2023-11-02T15:02:34.513Z,1.50
2023-11-02T15:05:03.614Z,1.60
2023-11-02T15:07:35.935Z,1.40
2023-11-02T15:10:04.457Z,1.40
2023-11-02T15:12:35.319Z,1.10
2023-11-02T15:15:03.767Z,1.60
2023-11-02T15:17:32.293Z,1.40
2023-11-02T15:20:05.483Z,1.30
2023-11-02T15:22:35.672Z,1.40
2023-11-02T15:25:05.823Z,1.10
2023-11-02T15:27:35.501Z,1.33
2023-11-02T15:30:07.148Z,1.40
2023-11-02T15:32:38.108Z,1.43
2023-11-02T15:35:07.684Z,1.43
2023-11-02T15:37:37.404Z,1.57
2023-11-02T15:40:07.584Z,1.50
2023-11-02T15:42:36.194Z,1.30
2023-11-02T15:45:07.001Z,1.40
2023-11-02T15:47:36.714Z,1.77
2023-11-02T15:50:08.563Z,1.30
2023-11-02T15:52:44.306Z,2.80
2023-11-02T15:55:12.723Z,3.60
2023-11-02T15:57:43.710Z,2.63
2023-11-02T16:00:13.472Z,2.40
2023-11-02T16:02:43.690Z,1.80
2023-11-02T16:05:12.330Z,3.20
2023-11-02T16:07:42.140Z,5.70
2023-11-02T16:10:14.318Z,2.30
2023-11-02T16:12:43.032Z,2.40
2023-11-02T16:15:12.647Z,2.70
2023-11-02T16:17:42.579Z,2.40
2023-11-02T16:20:18.225Z,2.13
2023-11-02T16:22:48.879Z,3.60
2023-11-02T16:25:19.542Z,3.97
2023-11-02T16:27:48.502Z,4.60
2023-11-02T16:30:17.690Z,3.33
2023-11-02T16:32:46.178Z,3.53
2023-11-02T16:35:28.347Z,3.17
2023-11-02T16:38:05.541Z,3.20
2023-11-02T16:40:35.129Z,4.40
2023-11-02T16:43:05.173Z,3.43
2023-11-02T16:45:37.135Z,2.10
2023-11-02T16:48:07.072Z,2.20
2023-11-02T16:50:35.334Z,2.20
2023-11-02T16:53:05.058Z,2.47
2023-11-02T16:55:35.594Z,2.97
2023-11-02T16:58:03.896Z,3.67
2023-11-02T17:00:32.240Z,3.03
2023-11-02T17:03:00.573Z,3.50
2023-11-02T17:05:28.905Z,4.27
2023-11-02T17:08:01.460Z,4.17
2023-11-02T17:10:31.604Z,5.47
2023-11-02T17:12:59.860Z,4.07
2023-11-02T17:15:28.447Z,4.60
2023-11-02T17:17:56.819Z,4.77
2023-11-02T17:20:27.767Z,3.53
2023-11-02T17:22:56.039Z,3.33
2023-11-02T17:25:24.287Z,3.77
2023-11-02T17:27:54.847Z,3.40
2023-11-02T17:30:23.505Z,3.70
2023-11-02T17:32:53.934Z,3.90
2023-11-02T17:35:23.353Z,3.87
2023-11-02T17:37:51.769Z,3.83
2023-11-02T17:40:22.651Z,3.40
2023-11-02T17:42:53.519Z,3.50
2023-11-02T17:45:22.507Z,3.30
2023-11-02T17:47:51.006Z,2.93
2023-11-02T17:50:19.350Z,2.57
2023-11-02T17:52:48.997Z,2.17
2023-11-02T17:55:17.806Z,1.97
2023-11-02T17:57:46.129Z,2.47
2023-11-02T18:00:16.895Z,2.90
2023-11-02T18:02:45.496Z,3.60
2023-11-02T18:05:14.106Z,3.90
2023-11-02T18:07:42.686Z,3.47
2023-11-02T18:10:11.355Z,3.23
2023-11-02T18:12:39.936Z,3.30
2023-11-02T18:15:09.240Z,4.90
2023-11-02T18:17:41.209Z,3.80
2023-11-02T18:20:10.438Z,4.07
2023-11-02T18:22:38.675Z,4.53
2023-11-02T18:25:07.469Z,3.63
2023-11-02T18:27:37.152Z,4.20
2023-11-02T18:30:06.685Z,3.60
2023-11-02T18:32:36.009Z,2.70
2023-11-02T18:35:06.444Z,2.60
2023-11-02T18:37:34.945Z,2.30
2023-11-02T18:40:03.818Z,2.90
2023-11-02T18:42:32.193Z,1.70
2023-11-02T18:45:00.484Z,1.70
2023-11-02T18:47:28.771Z,2.07
2023-11-02T18:49:58.763Z,1.63
2023-11-02T18:52:28.299Z,1.70
2023-11-02T18:54:58.351Z,1.93
2023-11-02T18:57:27.998Z,1.40
2023-11-02T18:59:56.289Z,1.37
2023-11-02T19:02:24.551Z,1.20
2023-11-02T19:04:53.600Z,1.40
2023-11-02T19:07:21.893Z,1.50
2023-11-02T19:09:51.542Z,1.60
2023-11-02T19:12:20.486Z,1.67
2023-11-02T19:14:48.708Z,1.60
2023-11-02T19:17:17.768Z,1.53
2023-11-02T19:19:46.357Z,1.93
2023-11-02T19:22:16.138Z,1.90
2023-11-02T19:24:44.884Z,2.40
2023-11-02T19:27:16.793Z,1.77
2023-11-02T19:29:45.166Z,1.30
2023-11-02T19:32:13.411Z,1.47
2023-11-02T19:34:41.801Z,1.40
2023-11-02T19:37:11.381Z,1.50
2023-11-02T19:39:39.673Z,1.70
2023-11-02T19:42:07.979Z,1.77
2023-11-02T19:44:41.059Z,1.70
2023-11-02T19:47:09.317Z,1.80
2023-11-02T19:49:37.578Z,2.20
2023-11-02T19:52:06.154Z,2.23
2023-11-02T19:54:34.561Z,2.60
2023-11-02T19:57:03.769Z,2.20
2023-11-02T19:59:32.025Z,2.73
2023-11-02T20:02:01.592Z,2.90
2023-11-02T20:04:29.893Z,2.70
2023-11-02T20:06:59.019Z,3.93
2023-11-02T20:09:29.389Z,5.27
2023-11-02T20:11:57.804Z,5.77
2023-11-02T20:14:26.096Z,5.10
2023-11-02T20:16:54.352Z,5.33
2023-11-02T20:19:25.637Z,5.43
2023-11-02T20:21:54.640Z,6.17
2023-11-02T20:24:23.756Z,6.83
2023-11-02T20:26:52.088Z,6.07
2023-11-02T20:29:20.555Z,5.70
2023-11-02T20:31:48.873Z,6.30
2023-11-02T20:34:17.738Z,6.20
2023-11-02T20:36:47.423Z,6.17
2023-11-02T20:39:15.794Z,5.30
2023-11-02T20:41:44.036Z,6.23
2023-11-02T20:44:12.468Z,6.90
2023-11-02T20:46:41.663Z,5.80
2023-11-02T20:49:10.294Z,6.60
2023-11-02T20:51:38.792Z,6.43
2023-11-02T20:54:10.274Z,7.50
2023-11-02T20:56:42.902Z,8.80
2023-11-02T20:59:11.491Z,9.67
2023-11-02T21:01:43.756Z,8.67
2023-11-02T21:04:13.348Z,7.70
2023-11-02T21:06:51.621Z,6.10
2023-11-02T21:09:27.959Z,6.17
2023-11-02T21:11:56.466Z,5.10
2023-11-02T21:14:25.092Z,4.90
2023-11-02T21:16:53.691Z,4.17
2023-11-02T21:19:21.994Z,4.07
2023-11-02T21:21:51.201Z,5.70
2023-11-02T21:24:19.539Z,5.50
2023-11-02T21:26:50.562Z,5.57
2023-11-02T21:29:18.941Z,5.90
2023-11-02T21:31:47.241Z,5.80
2023-11-02T21:34:15.482Z,6.00
2023-11-02T21:36:44.649Z,6.70
2023-11-02T21:39:13.501Z,6.10
2023-11-02T21:41:41.759Z,5.67
2023-11-02T21:44:11.351Z,5.57
2023-11-02T21:46:39.808Z,5.60
2023-11-02T21:49:09.388Z,5.00
2023-11-02T21:51:38.935Z,7.53
2023-11-02T21:54:07.631Z,6.30
2023-11-02T21:56:36.366Z,4.40
2023-11-02T21:59:09.215Z,4.90
2023-11-02T22:01:39.502Z,8.57
2023-11-02T22:04:08.134Z,8.33
2023-11-02T22:06:37.382Z,5.83
2023-11-02T22:09:06.124Z,8.53
2023-11-02T22:11:34.362Z,6.07
2023-11-02T22:14:04.935Z,4.90
2023-11-02T22:16:33.493Z,5.93
2023-11-02T22:19:03.143Z,4.03
2023-11-02T22:21:31.437Z,4.63
2023-11-02T22:24:00.413Z,7.13
2023-11-02T22:26:28.800Z,6.77
2023-11-02T22:28:57.617Z,6.53
2023-11-02T22:31:26.879Z,6.10
2023-11-02T22:33:55.458Z,6.00
2023-11-02T22:36:25.536Z,6.13
2023-11-02T22:38:58.808Z,5.70
2023-11-02T22:41:27.554Z,5.73
2023-11-02T22:43:55.754Z,5.80
2023-11-02T22:46:23.961Z,5.30
2023-11-02T22:48:52.308Z,5.67
2023-11-02T22:51:20.603Z,5.27
2023-11-02T22:53:50.192Z,5.23
2023-11-02T22:56:18.533Z,4.97
2023-11-02T22:58:46.885Z,3.60
2023-11-02T23:01:17.234Z,4.27
2023-11-02T23:03:45.582Z,3.50
2023-11-02T23:06:13.905Z,3.90
2023-11-02T23:08:42.158Z,3.53
2023-11-02T23:11:11.878Z,2.90
2023-11-02T23:13:40.806Z,2.67
2023-11-02T23:16:10.143Z,2.80
2023-11-02T23:18:38.425Z,2.90
2023-11-02T23:21:07.287Z,3.30
2023-11-02T23:23:35.757Z,3.00
2023-11-02T23:26:06.376Z,2.70
2023-11-02T23:28:36.480Z,2.80
2023-11-02T23:31:06.360Z,2.80
2023-11-02T23:33:34.766Z,2.70
2023-11-02T23:36:03.539Z,3.03
2023-11-02T23:38:34.018Z,2.53
2023-11-02T23:41:02.348Z,3.20
2023-11-02T23:43:30.616Z,3.87
2023-11-02T23:46:00.719Z,2.80
2023-11-02T23:48:29.085Z,2.20
2023-11-02T23:50:57.386Z,2.73
2023-11-02T23:53:25.545Z,2.63
2023-11-02T23:55:53.777Z,2.50
2023-11-02T23:58:22.013Z,2.20
